createdAt,value
2017-06-08T00:00:40.062Z,69.35
2017-06-08T00:01:40.956Z,69.89
2017-06-08T00:02:41.598Z,69.41
2017-06-08T00:03:42.237Z,69.22
2017-06-08T00:04:42.882Z,69.64
2017-06-08T00:05:43.519Z,70.21
2017-06-08T00:06:44.161Z,70.37
2017-06-08T00:07:44.803Z,70.86
2017-06-08T00:08:45.447Z,71.08
2017-06-08T00:09:46.237Z,70.56
2017-06-08T00:10:46.880Z,70.28
2017-06-08T00:11:47.521Z,69.73
2017-06-08T00:12:48.165Z,70.50
2017-06-08T00:13:48.804Z,70.12
2017-06-08T00:14:49.449Z,70.66
2017-06-08T00:15:50.087Z,68.87
2017-06-08T00:16:50.730Z,69.83
2017-06-08T00:17:51.623Z,69.31
2017-06-08T00:18:52.264Z,69.31
2017-06-08T00:19:52.906Z,69.12
2017-06-08T00:20:53.549Z,69.45
2017-06-08T00:21:54.189Z,70.47
2017-06-08T00:22:54.829Z,69.22
2017-06-08T00:23:55.471Z,70.47
2017-06-08T00:24:56.113Z,70.56
2017-06-08T00:25:56.905Z,70.09
2017-06-08T00:26:57.547Z,69.12
2017-06-08T00:27:58.196Z,69.93
2017-06-08T00:28:58.840Z,70.21
2017-06-08T00:29:59.481Z,69.35
2017-06-08T00:31:00.125Z,70.02
2017-06-08T00:32:00.764Z,70.28
2017-06-08T00:33:01.406Z,70.50
2017-06-08T00:34:02.047Z,69.79
2017-06-08T00:35:02.888Z,70.18
2017-06-08T00:36:03.531Z,69.22
2017-06-08T00:37:04.171Z,69.02
2017-06-08T00:38:04.812Z,69.89
2017-06-08T00:39:05.454Z,68.54
2017-06-08T00:40:06.095Z,68.74
2017-06-08T00:41:06.737Z,67.58
2017-06-08T00:42:07.382Z,68.35
2017-06-08T00:43:08.323Z,69.12
2017-06-08T00:44:08.965Z,68.16
2017-06-08T00:45:09.605Z,69.02
2017-06-08T00:46:10.247Z,69.41
2017-06-08T00:47:10.889Z,68.93
2017-06-08T00:48:11.529Z,70.18
2017-06-08T00:49:12.174Z,68.54
2017-06-08T00:50:12.815Z,69.31
2017-06-08T00:51:13.656Z,68.16
2017-06-08T00:52:14.297Z,68.44
2017-06-08T00:53:14.940Z,70.09
2017-06-08T00:54:15.581Z,68.64
2017-06-08T00:55:16.223Z,70.56
2017-06-08T00:56:16.864Z,69.02
2017-06-08T00:57:17.506Z,70.56
2017-06-08T00:58:18.146Z,69.12
2017-06-08T00:59:18.937Z,71.53
2017-06-08T01:00:19.578Z,69.31
2017-06-08T01:01:20.219Z,69.79
2017-06-08T01:02:20.860Z,70.95
2017-06-08T01:03:21.500Z,71.43
2017-06-08T01:04:22.147Z,70.66
2017-06-08T01:05:22.791Z,70.37
2017-06-08T01:06:23.489Z,72.01
2017-06-08T01:07:24.131Z,72.11
2017-06-08T01:08:24.974Z,71.81
2017-06-08T01:09:25.615Z,72.01
2017-06-08T01:10:26.256Z,72.30
2017-06-08T01:11:26.899Z,71.72
2017-06-08T01:12:27.541Z,72.39
2017-06-08T01:13:28.185Z,71.34
2017-06-08T01:14:28.827Z,72.59
2017-06-08T01:15:29.467Z,72.11
2017-06-08T01:16:30.306Z,72.39
2017-06-08T01:17:30.949Z,71.91
2017-06-08T01:18:31.592Z,71.72
2017-06-08T01:19:32.237Z,71.43
2017-06-08T01:20:32.879Z,73.26
2017-06-08T01:21:33.518Z,72.20
2017-06-08T01:22:34.161Z,72.01
2017-06-08T01:23:34.805Z,72.30
2017-06-08T01:24:35.744Z,72.97
2017-06-08T01:25:36.385Z,73.16
2017-06-08T01:26:37.027Z,73.16
2017-06-08T01:27:37.671Z,72.68
2017-06-08T01:28:38.312Z,72.78
2017-06-08T01:29:38.954Z,72.59
2017-06-08T01:30:39.594Z,72.39
2017-06-08T01:31:40.239Z,72.78
2017-06-08T01:32:41.078Z,72.68
2017-06-08T01:33:41.729Z,72.11
2017-06-08T01:34:42.371Z,72.59
2017-06-08T01:35:43.013Z,72.78
2017-06-08T01:36:43.653Z,72.68
2017-06-08T01:37:44.294Z,73.07
2017-06-08T01:38:44.935Z,73.74
2017-06-08T01:39:45.580Z,73.26
2017-06-08T01:40:46.525Z,73.84
2017-06-08T01:41:47.166Z,73.46
2017-06-08T01:42:47.807Z,73.16
2017-06-08T01:43:48.448Z,73.65
2017-06-08T01:44:49.088Z,73.74
2017-06-08T01:45:49.732Z,74.13
2017-06-08T01:46:50.372Z,73.26
2017-06-08T01:53:04.402Z,72.68
2017-06-08T01:54:05.047Z,74.51
2017-06-08T01:55:05.683Z,73.46
2017-06-08T01:56:06.329Z,74.13
2017-06-08T01:57:06.970Z,73.74
2017-06-08T01:58:07.612Z,73.07
2017-06-08T01:59:08.253Z,73.55
2017-06-08T02:00:08.893Z,74.03
2017-06-08T02:01:09.735Z,73.07
2017-06-08T02:02:10.378Z,73.07
2017-06-08T02:03:11.020Z,73.07
2017-06-08T02:04:11.661Z,72.88
2017-06-08T02:05:12.301Z,73.46
2017-06-08T02:06:12.944Z,73.16
2017-06-08T02:07:13.585Z,73.74
2017-06-08T02:08:14.228Z,73.07
2017-06-08T02:09:15.270Z,74.13
2017-06-08T02:10:15.912Z,74.13
2017-06-08T02:11:16.554Z,74.90
2017-06-08T02:12:17.195Z,74.41
2017-06-08T02:13:17.840Z,74.03
2017-06-08T02:14:18.479Z,74.13
2017-06-08T02:15:19.120Z,74.22
2017-06-08T02:16:19.763Z,74.03
2017-06-08T02:17:20.703Z,74.51
2017-06-08T02:18:21.346Z,74.32
2017-06-08T02:19:21.987Z,74.22
2017-06-08T02:20:22.630Z,74.13
2017-06-08T02:21:23.271Z,74.80
2017-06-08T02:22:23.911Z,72.88
2017-06-08T02:23:24.556Z,73.84
2017-06-08T02:24:25.195Z,74.03
2017-06-08T02:25:25.836Z,74.41
2017-06-08T02:26:26.679Z,73.46
2017-06-08T02:27:27.319Z,74.13
2017-06-08T02:28:27.960Z,74.22
2017-06-08T02:29:28.604Z,74.41
2017-06-08T02:30:29.244Z,73.94
2017-06-08T02:31:29.886Z,73.55
2017-06-08T02:32:30.528Z,74.32
2017-06-08T02:33:31.169Z,74.90
2017-06-08T02:34:32.010Z,74.13
2017-06-08T02:35:32.653Z,74.13
2017-06-08T02:36:33.296Z,73.07
2017-06-08T02:37:33.938Z,74.61
2017-06-08T02:38:34.582Z,74.80
2017-06-08T02:39:35.223Z,73.84
2017-06-08T02:40:35.865Z,73.74
2017-06-08T02:41:36.504Z,74.41
2017-06-08T02:42:37.347Z,74.13
2017-06-08T02:43:37.998Z,74.22
2017-06-08T02:44:38.640Z,74.90
2017-06-08T02:45:39.281Z,74.03
2017-06-08T02:46:39.928Z,73.74
2017-06-08T02:47:40.562Z,74.03
2017-06-08T02:48:41.204Z,74.67
2017-06-08T02:49:41.846Z,74.71
2017-06-08T02:50:42.690Z,74.13
2017-06-08T02:51:43.330Z,74.03
2017-06-08T02:52:43.977Z,74.99
2017-06-08T02:53:44.674Z,74.71
2017-06-08T02:54:45.376Z,74.90
2017-06-08T02:55:46.017Z,74.71
2017-06-08T02:56:46.659Z,74.61
2017-06-08T02:57:47.301Z,74.90
2017-06-08T02:58:48.140Z,74.51
2017-06-08T02:59:48.784Z,75.09
2017-06-08T03:00:49.427Z,74.51
2017-06-08T03:01:50.070Z,74.41
2017-06-08T03:02:50.720Z,74.48
2017-06-08T03:03:51.416Z,74.80
2017-06-08T03:04:52.051Z,74.80
2017-06-08T03:05:52.692Z,74.71
2017-06-08T03:06:53.334Z,74.99
2017-06-08T03:07:54.127Z,74.61
2017-06-08T03:08:54.766Z,74.90
2017-06-08T03:09:55.407Z,74.99
2017-06-08T03:10:56.049Z,74.96
2017-06-08T03:11:56.688Z,75.19
2017-06-08T03:12:57.331Z,74.90
2017-06-08T03:13:57.973Z,74.67
2017-06-08T03:14:58.616Z,75.09
2017-06-08T03:15:59.458Z,75.09
2017-06-08T03:17:00.100Z,75.09
2017-06-08T03:18:00.740Z,75.09
2017-06-08T03:19:01.386Z,74.80
2017-06-08T03:20:02.027Z,75.19
2017-06-08T03:21:02.669Z,74.90
2017-06-08T03:22:03.308Z,74.99
2017-06-08T03:23:03.950Z,74.90
2017-06-08T03:24:04.794Z,74.99
2017-06-08T03:25:05.435Z,75.57
2017-06-08T03:26:06.075Z,74.90
2017-06-08T03:27:06.717Z,74.99
2017-06-08T03:28:07.357Z,74.86
2017-06-08T03:29:07.998Z,75.73
2017-06-08T03:30:08.641Z,74.96
2017-06-08T03:31:09.290Z,75.05
2017-06-08T03:32:10.128Z,75.86
2017-06-08T03:33:10.774Z,75.92
2017-06-08T03:34:11.414Z,75.24
2017-06-08T03:35:12.056Z,75.05
2017-06-08T03:36:12.695Z,75.05
2017-06-08T03:37:13.339Z,75.15
2017-06-08T03:38:13.982Z,75.54
2017-06-08T03:39:14.626Z,75.44
2017-06-08T03:40:15.266Z,75.73
2017-06-08T03:41:16.106Z,76.01
2017-06-08T03:42:16.748Z,76.31
2017-06-08T03:43:17.394Z,75.73
2017-06-08T03:44:18.035Z,75.24
2017-06-08T03:45:18.674Z,76.11
2017-06-08T03:46:19.315Z,75.34
2017-06-08T03:47:19.955Z,75.82
2017-06-08T03:48:20.596Z,76.11
2017-06-08T03:49:21.390Z,75.15
2017-06-08T03:50:22.032Z,75.44
2017-06-08T03:51:22.674Z,75.82
2017-06-08T03:52:23.320Z,76.01
2017-06-08T03:53:23.953Z,75.73
2017-06-08T03:54:24.596Z,75.82
2017-06-08T03:55:25.240Z,76.21
2017-06-08T03:56:25.880Z,76.59
2017-06-08T03:57:26.718Z,75.73
2017-06-08T03:58:27.360Z,75.82
2017-06-08T03:59:28.003Z,76.21
2017-06-08T04:00:28.648Z,75.92
2017-06-08T04:01:29.286Z,75.92
2017-06-08T04:02:29.927Z,75.92
2017-06-08T04:03:30.568Z,75.92
2017-06-08T04:04:31.210Z,76.50
2017-06-08T04:05:32.103Z,76.88
2017-06-08T04:06:32.747Z,76.01
2017-06-08T04:07:33.387Z,76.50
2017-06-08T04:08:34.029Z,76.59
2017-06-08T04:09:34.671Z,76.11
2017-06-08T04:10:35.311Z,76.40
2017-06-08T04:11:35.953Z,76.88
2017-06-08T04:12:36.594Z,76.78
2017-06-08T04:13:37.438Z,76.69
2017-06-08T04:14:38.077Z,76.50
2017-06-08T04:15:38.721Z,76.50
2017-06-08T04:16:39.362Z,76.11
2017-06-08T04:17:40.004Z,76.50
2017-06-08T04:18:40.648Z,76.78
2017-06-08T04:19:41.289Z,76.21
2017-06-08T04:20:41.929Z,76.50
2017-06-08T04:21:42.569Z,76.69
2017-06-08T04:22:43.511Z,76.01
2017-06-08T04:23:44.151Z,76.69
2017-06-08T04:24:44.793Z,76.21
2017-06-08T04:25:45.438Z,76.21
2017-06-08T04:26:46.079Z,76.78
2017-06-08T04:27:46.720Z,76.40
2017-06-08T04:28:47.359Z,76.21
2017-06-08T04:29:48.001Z,75.92
2017-06-08T04:30:48.842Z,76.21
2017-06-08T04:31:49.486Z,76.50
2017-06-08T04:32:50.127Z,76.21
2017-06-08T04:33:50.765Z,75.92
2017-06-08T04:34:51.406Z,76.31
2017-06-08T04:35:52.050Z,77.26
2017-06-08T04:36:52.688Z,76.88
2017-06-08T04:37:53.331Z,77.36
2017-06-08T04:38:54.172Z,77.36
2017-06-08T04:39:54.814Z,76.88
2017-06-08T04:40:55.456Z,76.98
2017-06-08T04:41:56.096Z,77.36
2017-06-08T04:42:56.741Z,77.17
2017-06-08T04:43:57.385Z,76.88
2017-06-08T04:44:58.081Z,77.36
2017-06-08T04:45:58.724Z,77.36
2017-06-08T04:46:59.571Z,77.36
2017-06-08T04:48:00.210Z,76.98
2017-06-08T04:49:00.850Z,76.88
2017-06-08T04:50:01.491Z,76.98
2017-06-08T04:51:02.133Z,76.78
2017-06-08T04:52:02.775Z,76.40
2017-06-08T04:53:03.423Z,76.69
2017-06-08T04:54:04.056Z,77.36
2017-06-08T04:55:04.696Z,77.17
2017-06-08T04:56:05.643Z,77.17
2017-06-08T04:57:06.286Z,77.08
2017-06-08T04:58:06.926Z,76.88
2017-06-08T04:59:07.568Z,77.17
2017-06-08T05:00:08.212Z,77.17
2017-06-08T05:01:08.856Z,77.08
2017-06-08T05:02:09.494Z,77.08
2017-06-08T05:03:10.136Z,77.08
2017-06-08T05:04:11.226Z,77.17
2017-06-08T05:05:11.871Z,76.88
2017-06-08T05:06:12.512Z,77.11
2017-06-08T05:07:13.161Z,76.78
2017-06-08T05:08:13.793Z,77.08
2017-06-08T05:09:14.434Z,76.88
2017-06-08T05:10:15.077Z,76.40
2017-06-08T05:11:15.718Z,76.69
2017-06-08T05:12:16.661Z,76.50
2017-06-08T05:13:17.303Z,76.98
2017-06-08T05:14:17.943Z,76.59
2017-06-08T05:15:18.582Z,76.92
2017-06-08T05:16:19.226Z,76.69
2017-06-08T05:17:19.866Z,76.98
2017-06-08T05:18:20.510Z,76.88
2017-06-08T05:19:21.155Z,76.98
2017-06-08T05:20:22.092Z,77.08
2017-06-08T05:21:22.733Z,77.08
2017-06-08T05:22:23.374Z,76.88
2017-06-08T05:23:24.014Z,76.88
2017-06-08T05:24:24.655Z,76.88
2017-06-08T05:25:25.299Z,76.69
2017-06-08T05:26:25.938Z,76.78
2017-06-08T05:27:26.581Z,76.40
2017-06-08T05:28:27.423Z,76.31
2017-06-08T05:29:28.062Z,76.69
2017-06-08T05:30:28.705Z,76.50
2017-06-08T05:31:29.346Z,76.88
2017-06-08T05:32:29.991Z,76.31
2017-06-08T05:33:30.630Z,76.88
2017-06-08T05:34:31.269Z,76.40
2017-06-08T05:35:31.911Z,76.78
2017-06-08T05:36:32.553Z,76.78
2017-06-08T05:37:33.445Z,76.88
2017-06-08T05:38:34.085Z,76.69
2017-06-08T05:39:34.725Z,77.17
2017-06-08T05:40:35.368Z,76.78
2017-06-08T05:41:36.008Z,76.88
2017-06-08T05:42:36.648Z,76.59
2017-06-08T05:43:37.289Z,76.69
2017-06-08T05:44:37.932Z,76.21
2017-06-08T05:45:38.724Z,76.88
2017-06-08T05:46:39.365Z,76.31
2017-06-08T05:47:40.007Z,76.50
2017-06-08T05:48:40.649Z,76.21
2017-06-08T05:49:41.293Z,76.40
2017-06-08T05:50:41.934Z,76.01
2017-06-08T05:51:42.574Z,77.26
2017-06-08T05:52:43.217Z,77.17
2017-06-08T05:53:44.057Z,76.88
2017-06-08T05:54:44.701Z,77.26
2017-06-08T05:55:45.343Z,77.26
2017-06-08T05:56:45.984Z,77.17
2017-06-08T05:57:46.627Z,77.17
2017-06-08T05:58:47.270Z,77.17
2017-06-08T05:59:47.907Z,77.17
2017-06-08T06:00:48.548Z,77.08
2017-06-08T06:01:49.492Z,77.36
2017-06-08T06:02:50.135Z,77.26
2017-06-08T06:03:50.774Z,77.17
2017-06-08T06:04:51.414Z,77.17
2017-06-08T06:05:52.056Z,77.08
2017-06-08T06:06:52.696Z,77.26
2017-06-08T06:07:53.337Z,77.26
2017-06-08T06:08:53.980Z,77.17
2017-06-08T06:09:54.624Z,76.69
2017-06-08T06:10:55.516Z,77.17
2017-06-08T06:11:56.154Z,77.36
2017-06-08T06:12:56.796Z,77.17
2017-06-08T06:13:57.437Z,77.36
2017-06-08T06:14:58.081Z,77.26
2017-06-08T06:15:58.722Z,77.26
2017-06-08T06:16:59.364Z,77.26
2017-06-08T06:18:00.005Z,77.26
2017-06-08T06:19:00.844Z,77.36
2017-06-08T06:20:01.487Z,76.88
2017-06-08T06:21:02.133Z,77.26
2017-06-08T06:22:02.828Z,77.65
2017-06-08T06:23:03.422Z,76.88
2017-06-08T06:24:04.059Z,77.08
2017-06-08T06:25:04.702Z,77.36
2017-06-08T06:26:05.341Z,77.17
2017-06-08T06:27:06.182Z,77.75
2017-06-08T06:28:06.822Z,77.65
2017-06-08T06:29:07.463Z,76.98
2017-06-08T06:30:08.104Z,77.31
2017-06-08T06:31:08.745Z,77.59
2017-06-08T06:32:09.387Z,77.17
2017-06-08T06:33:10.028Z,77.17
2017-06-08T06:34:10.671Z,77.17
2017-06-08T06:35:11.511Z,77.88
2017-06-08T06:36:12.153Z,77.75
2017-06-08T06:37:12.792Z,77.26
2017-06-08T06:38:13.434Z,77.26
2017-06-08T06:39:14.077Z,77.31
2017-06-08T06:40:14.717Z,77.36
2017-06-08T06:41:15.358Z,77.26
2017-06-08T06:42:15.998Z,77.11
2017-06-08T06:43:16.839Z,77.17
2017-06-08T06:44:17.484Z,77.40
2017-06-08T06:45:18.123Z,77.36
2017-06-08T06:46:18.765Z,77.08
2017-06-08T06:47:19.405Z,77.59
2017-06-08T06:48:20.045Z,77.26
2017-06-08T06:49:20.686Z,77.46
2017-06-08T06:50:21.329Z,77.65
2017-06-08T06:51:21.971Z,77.46
2017-06-08T06:52:22.811Z,77.78
2017-06-08T06:53:23.452Z,77.88
2017-06-08T06:54:24.095Z,77.17
2017-06-08T06:55:24.738Z,77.26
2017-06-08T06:56:25.380Z,77.31
2017-06-08T06:57:26.020Z,77.31
2017-06-08T06:58:26.660Z,76.40
2017-06-08T06:59:27.301Z,76.44
2017-06-08T07:00:28.143Z,76.88
2017-06-08T07:01:28.786Z,76.40
2017-06-08T07:02:29.426Z,77.08
2017-06-08T07:03:30.066Z,77.46
2017-06-08T07:04:30.709Z,77.36
2017-06-08T07:05:31.348Z,77.56
2017-06-08T07:06:31.992Z,77.46
2017-06-08T07:07:32.635Z,77.84
2017-06-08T07:08:33.426Z,79.10
2017-06-08T07:09:34.069Z,79.19
2017-06-08T07:10:34.710Z,78.52
2017-06-08T07:11:35.356Z,78.85
2017-06-08T07:12:35.997Z,78.75
2017-06-08T07:13:36.641Z,78.27
2017-06-08T07:14:37.283Z,78.36
2017-06-08T07:15:37.924Z,78.56
2017-06-08T07:16:38.766Z,77.69
2017-06-08T07:17:39.411Z,77.88
2017-06-08T07:18:40.055Z,78.08
2017-06-08T07:19:40.697Z,77.88
2017-06-08T07:20:41.338Z,78.36
2017-06-08T07:21:41.979Z,77.98
2017-06-08T07:22:42.620Z,78.46
2017-06-08T07:23:43.262Z,77.98
2017-06-08T07:24:43.905Z,77.59
2017-06-08T07:25:44.750Z,77.88
2017-06-08T07:26:45.389Z,77.59
2017-06-08T07:27:46.033Z,78.27
2017-06-08T07:28:46.676Z,78.46
2017-06-08T07:29:47.317Z,78.75
2017-06-08T07:30:47.958Z,78.65
2017-06-08T07:31:48.600Z,78.75
2017-06-08T07:32:49.244Z,77.98
2017-06-08T07:33:50.089Z,78.65
2017-06-08T07:34:50.732Z,78.33
2017-06-08T07:35:51.376Z,78.65
2017-06-08T07:36:52.016Z,78.65
2017-06-08T07:37:52.659Z,78.27
2017-06-08T07:38:53.301Z,77.98
2017-06-08T07:39:53.946Z,78.36
2017-06-08T07:40:54.588Z,78.36
2017-06-08T07:41:55.380Z,78.65
2017-06-08T07:42:56.025Z,77.88
2017-06-08T07:43:56.667Z,78.75
2017-06-08T07:44:57.312Z,77.59
2017-06-08T07:45:57.957Z,77.40
2017-06-08T07:46:58.600Z,77.88
2017-06-08T07:47:59.241Z,77.98
2017-06-08T07:48:59.883Z,78.36
2017-06-08T07:50:00.878Z,78.56
2017-06-08T07:51:01.516Z,78.27
2017-06-08T07:52:02.161Z,77.59
2017-06-08T07:53:02.802Z,77.59
2017-06-08T07:54:03.444Z,78.27
2017-06-08T07:55:04.089Z,78.17
2017-06-08T07:56:04.734Z,78.42
2017-06-08T07:57:05.376Z,78.08
2017-06-08T07:58:06.169Z,78.36
2017-06-08T07:59:06.811Z,78.56
2017-06-08T08:00:07.453Z,77.88
2017-06-08T08:01:08.096Z,78.03
2017-06-08T08:02:08.739Z,78.27
2017-06-08T08:03:09.382Z,78.56
2017-06-08T08:04:10.025Z,78.46
2017-06-08T08:05:10.665Z,78.56
2017-06-08T08:06:11.307Z,78.56
2017-06-08T08:07:12.149Z,78.56
2017-06-08T08:08:12.743Z,78.08
2017-06-08T08:09:13.385Z,78.52
2017-06-08T08:10:14.028Z,78.75
2017-06-08T08:11:14.669Z,78.27
2017-06-08T08:12:15.310Z,78.08
2017-06-08T08:13:15.955Z,78.27
2017-06-08T08:14:16.597Z,78.46
2017-06-08T08:15:17.393Z,79.00
2017-06-08T08:16:18.034Z,78.71
2017-06-08T08:17:18.676Z,78.46
2017-06-08T08:18:19.318Z,78.75
2017-06-08T08:19:19.964Z,78.36
2017-06-08T08:20:20.608Z,78.36
2017-06-08T08:21:21.250Z,79.03
2017-06-08T08:22:21.893Z,78.36
2017-06-08T08:23:22.833Z,78.36
2017-06-08T08:24:23.477Z,78.46
2017-06-08T08:25:24.117Z,78.36
2017-06-08T08:26:24.764Z,78.46
2017-06-08T08:27:25.460Z,78.65
2017-06-08T08:28:26.103Z,78.65
2017-06-08T08:29:26.746Z,78.36
2017-06-08T08:30:27.391Z,78.46
2017-06-08T08:31:28.182Z,78.46
2017-06-08T08:32:28.825Z,77.50
2017-06-08T08:33:29.473Z,78.08
2017-06-08T08:34:30.119Z,78.75
2017-06-08T08:35:30.756Z,78.56
2017-06-08T08:36:31.402Z,78.27
2017-06-08T08:37:31.993Z,78.46
2017-06-08T08:38:32.634Z,77.98
2017-06-08T08:39:33.275Z,78.36
2017-06-08T08:40:34.120Z,78.65
2017-06-08T08:41:34.762Z,77.50
2017-06-08T08:42:35.408Z,77.88
2017-06-08T08:43:36.109Z,78.56
2017-06-08T08:44:36.751Z,78.65
2017-06-08T08:45:37.395Z,78.56
2017-06-08T08:46:38.037Z,78.46
2017-06-08T08:47:38.683Z,78.46
2017-06-08T08:48:39.522Z,78.17
2017-06-08T08:49:40.168Z,78.56
2017-06-08T08:50:40.812Z,78.56
2017-06-08T08:51:41.450Z,78.08
2017-06-08T08:52:42.095Z,77.21
2017-06-08T08:53:42.740Z,77.11
2017-06-08T08:54:43.382Z,76.82
2017-06-08T08:55:44.073Z,77.50
2017-06-08T08:56:44.914Z,78.08
2017-06-08T08:57:45.560Z,77.69
2017-06-08T08:58:46.199Z,77.88
2017-06-08T08:59:46.893Z,78.75
2017-06-08T09:00:47.536Z,78.56
2017-06-08T09:01:48.179Z,78.46
2017-06-08T09:02:48.829Z,78.65
2017-06-08T09:03:49.522Z,78.36
2017-06-08T09:04:50.364Z,78.08
2017-06-08T09:05:51.006Z,78.27
2017-06-08T09:06:51.649Z,78.56
2017-06-08T09:07:52.290Z,77.50
2017-06-08T09:08:52.932Z,77.40
2017-06-08T09:09:53.625Z,78.36
2017-06-08T09:10:54.268Z,78.08
2017-06-08T09:11:55.109Z,77.50
2017-06-08T09:12:55.755Z,78.08
2017-06-08T09:13:56.392Z,78.75
2017-06-08T09:14:57.035Z,77.69
2017-06-08T09:15:57.677Z,77.50
2017-06-08T09:16:58.319Z,77.50
2017-06-08T09:17:58.962Z,78.36
2017-06-08T09:18:59.606Z,78.08
2017-06-08T09:20:00.449Z,78.17
2017-06-08T09:21:01.143Z,77.88
2017-06-08T09:22:01.784Z,77.94
2017-06-08T09:23:02.430Z,78.27
2017-06-08T09:24:03.119Z,78.71
2017-06-08T09:25:03.761Z,78.17
2017-06-08T09:26:04.402Z,78.27
2017-06-08T09:27:05.049Z,78.27
2017-06-08T09:28:05.844Z,78.56
2017-06-08T09:29:06.486Z,77.98
2017-06-08T09:30:07.129Z,78.36
2017-06-08T09:31:07.771Z,78.36
2017-06-08T09:32:08.415Z,78.56
2017-06-08T09:33:09.058Z,78.27
2017-06-08T09:34:09.757Z,78.46
2017-06-08T09:35:10.401Z,78.75
2017-06-08T09:36:11.245Z,77.98
2017-06-08T09:37:11.886Z,78.08
2017-06-08T09:38:15.559Z,78.17
2017-06-08T09:39:16.354Z,78.17
2017-06-08T09:40:16.996Z,78.17
2017-06-08T09:41:17.639Z,78.08
2017-06-08T09:42:18.281Z,78.36
2017-06-08T09:43:18.872Z,78.46
2017-06-08T09:44:19.462Z,78.17
2017-06-08T09:45:20.109Z,77.78
2017-06-08T09:46:20.753Z,78.65
2017-06-08T09:47:21.550Z,78.17
2017-06-08T09:48:22.191Z,77.88
2017-06-08T09:49:22.832Z,77.59
2017-06-08T09:50:23.475Z,77.40
2017-06-08T09:51:24.119Z,78.08
2017-06-08T09:52:24.761Z,78.46
2017-06-08T09:53:25.403Z,78.17
2017-06-08T09:54:26.044Z,78.27
2017-06-08T09:55:26.988Z,78.08
2017-06-08T09:56:27.630Z,78.36
2017-06-08T09:57:28.273Z,78.46
2017-06-08T09:58:28.914Z,78.56
2017-06-08T09:59:29.560Z,78.65
2017-06-08T10:00:30.202Z,78.36
2017-06-08T10:01:30.847Z,78.46
2017-06-08T10:02:31.487Z,78.36
2017-06-08T10:03:32.328Z,78.27
2017-06-08T10:04:32.973Z,78.56
2017-06-08T10:05:33.615Z,77.98
2017-06-08T10:06:34.259Z,78.27
2017-06-08T10:07:34.902Z,78.75
2017-06-08T10:08:35.545Z,78.27
2017-06-08T10:09:36.188Z,78.17
2017-06-08T10:10:36.830Z,78.08
2017-06-08T10:11:37.674Z,77.98
2017-06-08T10:12:38.267Z,77.40
2017-06-08T10:13:38.908Z,77.50
2017-06-08T10:14:39.549Z,77.44
2017-06-08T10:15:40.194Z,77.69
2017-06-08T10:16:40.834Z,77.83
2017-06-08T10:17:41.528Z,77.98
2017-06-08T10:18:42.170Z,77.83
2017-06-08T10:19:42.814Z,77.83
2017-06-08T10:20:43.607Z,77.50
2017-06-08T10:21:44.247Z,77.73
2017-06-08T10:22:45.090Z,77.73
2017-06-08T10:23:45.734Z,77.50
2017-06-08T10:24:46.380Z,77.50
2017-06-08T10:25:47.020Z,77.59
2017-06-08T10:26:47.661Z,77.88
2017-06-08T10:27:48.364Z,77.34
2017-06-08T10:28:49.006Z,77.59
2017-06-08T10:29:49.846Z,77.50
2017-06-08T10:30:50.492Z,77.50
2017-06-08T10:31:51.135Z,77.92
2017-06-08T10:32:51.778Z,77.63
2017-06-08T10:33:52.422Z,77.53
2017-06-08T10:34:53.066Z,77.88
2017-06-08T10:35:53.706Z,78.11
2017-06-08T10:36:54.347Z,77.25
2017-06-08T10:37:54.992Z,77.63
2017-06-08T10:38:55.783Z,77.34
2017-06-08T10:39:56.425Z,77.63
2017-06-08T10:40:57.119Z,77.73
2017-06-08T10:41:57.814Z,77.53
2017-06-08T10:43:01.490Z,77.53
2017-06-08T10:44:02.335Z,77.53
2017-06-08T10:45:02.978Z,77.53
2017-06-08T10:46:03.620Z,76.96
2017-06-08T10:47:04.267Z,77.15
2017-06-08T10:48:05.056Z,77.15
2017-06-08T10:49:06.050Z,77.44
2017-06-08T10:50:06.695Z,76.96
2017-06-08T10:51:07.335Z,77.06
2017-06-08T10:52:07.976Z,77.34
2017-06-08T10:53:08.618Z,77.34
2017-06-08T10:54:09.311Z,77.44
2017-06-08T10:55:09.957Z,76.76
2017-06-08T10:56:10.655Z,77.06
2017-06-08T10:57:11.499Z,76.67
2017-06-08T10:58:12.147Z,76.96
2017-06-08T10:59:12.848Z,76.76
2017-06-08T11:00:13.637Z,76.67
2017-06-08T11:01:14.278Z,76.67
2017-06-08T11:02:14.921Z,76.48
2017-06-08T11:03:15.562Z,76.76
2017-06-08T11:04:16.204Z,76.76
2017-06-08T11:05:16.850Z,76.96
2017-06-08T11:06:17.493Z,76.67
2017-06-08T11:07:18.136Z,76.28
2017-06-08T11:08:18.928Z,76.76
2017-06-08T11:09:19.572Z,76.48
2017-06-08T11:10:20.251Z,76.18
2017-06-08T11:11:20.861Z,76.09
2017-06-08T11:12:21.544Z,76.86
2017-06-08T11:13:22.185Z,76.86
2017-06-08T11:14:22.825Z,76.09
2017-06-08T11:15:23.468Z,76.57
2017-06-08T11:16:24.109Z,76.67
2017-06-08T11:17:24.951Z,76.09
2017-06-08T11:18:25.595Z,76.18
2017-06-08T11:19:26.236Z,76.18
2017-06-08T11:20:26.880Z,76.18
2017-06-08T11:21:27.529Z,75.99
2017-06-08T11:22:28.170Z,75.99
2017-06-08T11:23:28.816Z,76.32
2017-06-08T11:24:29.455Z,75.71
2017-06-08T11:25:30.248Z,75.42
2017-06-08T11:26:30.893Z,75.65
2017-06-08T11:27:31.536Z,75.32
2017-06-08T11:28:32.182Z,75.03
2017-06-08T11:29:32.820Z,75.80
2017-06-08T11:30:33.465Z,75.65
2017-06-08T11:31:34.109Z,75.65
2017-06-08T11:32:34.752Z,75.90
2017-06-08T11:33:35.545Z,75.45
2017-06-08T11:34:36.187Z,75.55
2017-06-08T11:35:36.831Z,76.03
2017-06-08T11:36:37.475Z,75.26
2017-06-08T11:37:38.119Z,76.23
2017-06-08T11:38:38.760Z,76.03
2017-06-08T11:39:39.408Z,75.36
2017-06-08T11:40:40.046Z,75.23
2017-06-08T11:41:40.839Z,75.36
2017-06-08T11:42:41.633Z,75.84
2017-06-08T11:43:42.275Z,76.13
2017-06-08T11:44:42.921Z,76.09
2017-06-08T11:45:43.564Z,75.74
2017-06-08T11:46:44.208Z,75.93
2017-06-08T11:47:44.855Z,75.93
2017-06-08T11:48:45.493Z,76.23
2017-06-08T11:49:46.136Z,75.74
2017-06-08T11:50:47.130Z,75.84
2017-06-08T11:51:47.772Z,76.13
2017-06-08T11:52:48.468Z,76.13
2017-06-08T11:53:49.159Z,75.84
2017-06-08T11:54:49.804Z,75.45
2017-06-08T11:55:50.446Z,76.03
2017-06-08T11:56:51.088Z,75.65
2017-06-08T11:57:51.729Z,75.16
2017-06-08T11:58:52.479Z,75.55
2017-06-08T11:59:53.117Z,74.97
2017-06-08T12:00:53.762Z,75.55
2017-06-08T12:01:54.403Z,75.84
2017-06-08T12:02:55.051Z,75.36
2017-06-08T12:03:55.695Z,75.07
2017-06-08T12:04:56.339Z,75.07
2017-06-08T12:05:56.985Z,75.16
2017-06-08T12:06:57.627Z,75.74
2017-06-08T12:07:58.470Z,75.26
2017-06-08T12:08:59.113Z,75.84
2017-06-08T12:09:59.755Z,75.26
2017-06-08T12:11:00.399Z,75.36
2017-06-08T12:12:01.043Z,75.26
2017-06-08T12:13:01.685Z,74.97
2017-06-08T12:14:02.326Z,75.16
2017-06-08T12:15:02.967Z,76.03
2017-06-08T12:16:04.011Z,76.13
2017-06-08T12:17:04.655Z,75.36
2017-06-08T12:18:05.297Z,74.97
2017-06-08T12:19:05.942Z,75.36
2017-06-08T12:20:06.584Z,75.36
2017-06-08T12:21:07.227Z,75.45
2017-06-08T12:22:07.871Z,75.36
2017-06-08T12:23:08.574Z,75.45
2017-06-08T12:24:09.417Z,75.45
2017-06-08T12:25:10.116Z,75.55
2017-06-08T12:26:10.762Z,75.07
2017-06-08T12:27:11.406Z,75.55
2017-06-08T12:28:12.048Z,75.36
2017-06-08T12:29:12.694Z,75.93
2017-06-08T12:30:13.332Z,75.93
2017-06-08T12:31:13.978Z,75.93
2017-06-08T12:32:14.822Z,76.03
2017-06-08T12:33:15.467Z,75.74
2017-06-08T12:34:16.111Z,75.74
2017-06-08T12:35:16.758Z,76.23
2017-06-08T12:36:17.400Z,75.74
2017-06-08T12:37:18.043Z,75.84
2017-06-08T12:38:18.684Z,75.84
2017-06-08T12:39:19.329Z,75.65
2017-06-08T12:40:19.971Z,75.45
2017-06-08T12:41:20.823Z,75.16
2017-06-08T12:42:21.458Z,75.36
2017-06-08T12:43:22.100Z,75.65
2017-06-08T12:44:22.743Z,75.65
2017-06-08T12:45:23.387Z,75.07
2017-06-08T12:46:24.029Z,75.07
2017-06-08T12:47:24.673Z,75.55
2017-06-08T12:48:25.316Z,75.93
2017-06-08T12:49:26.161Z,75.93
2017-06-08T12:50:26.802Z,75.55
2017-06-08T12:51:27.479Z,75.55
2017-06-08T12:52:28.092Z,75.78
2017-06-08T12:53:28.733Z,75.93
2017-06-08T12:54:29.374Z,76.03
2017-06-08T12:55:30.017Z,75.40
2017-06-08T12:56:30.664Z,75.65
2017-06-08T12:57:31.556Z,75.36
2017-06-08T12:58:32.201Z,75.45
2017-06-08T12:59:32.842Z,75.74
2017-06-08T13:00:33.487Z,75.26
2017-06-08T13:01:34.131Z,75.26
2017-06-08T13:02:34.775Z,74.88
2017-06-08T13:03:35.417Z,75.20
2017-06-08T13:04:36.063Z,75.30
2017-06-08T13:05:36.907Z,75.30
2017-06-08T13:06:37.551Z,75.30